Time;durP1;ratioP1;P1;durP2;ratioP2;P2;SDS_P1;SDS_P2;PMS_P1;PMS_P2;Temp;Humidity;BMP_temperature;BMP_pressure;BME280_temperature;BME280_humidity;BME280_pressure;Samples;Min_cycle;Max_cycle;Signal;HPM_P1;HPM_P2
2023/06/08 00:00:39;;;;;;;7.00;4.85;;;16.40;99.90;;;;;;4130001;28;20096;-62
2023/06/08 00:02:42;;;;;;;13.55;5.60;;;16.30;99.90;;;;;;4128809;28;20073;-62
2023/06/08 00:04:45;;;;;;;12.48;5.18;;;16.30;99.90;;;;;;4129666;28;20034;-62
2023/06/08 00:06:49;;;;;;;6.65;5.68;;;16.30;99.90;;;;;;4128213;28;20034;-62
2023/06/08 00:08:50;;;;;;;7.47;5.47;;;16.20;99.90;;;;;;4129614;28;20046;-62
2023/06/08 00:10:51;;;;;;;8.02;5.47;;;16.20;99.90;;;;;;4128565;28;20026;-62
2023/06/08 00:12:53;;;;;;;5.85;5.03;;;16.20;99.90;;;;;;4128861;28;20042;-62
2023/06/08 00:14:54;;;;;;;15.00;5.75;;;16.20;99.90;;;;;;4128569;28;20065;-63
2023/06/08 00:16:56;;;;;;;6.57;5.43;;;16.20;99.90;;;;;;4128959;28;20433;-63
2023/06/08 00:18:57;;;;;;;8.45;6.53;;;16.20;99.90;;;;;;4128539;28;20038;-66
2023/06/08 00:20:58;;;;;;;11.00;7.18;;;16.20;99.90;;;;;;4128351;28;20042;-66
2023/06/08 00:23:00;;;;;;;12.23;8.00;;;16.30;99.90;;;;;;4129543;28;20104;-61
2023/06/08 00:25:02;;;;;;;15.40;9.30;;;16.30;99.90;;;;;;4127438;28;20046;-63
2023/06/08 00:27:05;;;;;;;10.48;8.52;;;16.30;99.90;;;;;;4129218;28;20034;-62
2023/06/08 00:29:06;;;;;;;14.30;8.93;;;16.30;99.90;;;;;;4127859;28;20068;-63
2023/06/08 00:31:07;;;;;;;14.63;8.90;;;16.40;99.90;;;;;;4129231;28;20084;-64
2023/06/08 00:33:08;;;;;;;12.77;9.68;;;16.30;99.90;;;;;;4127459;28;20152;-64
2023/06/08 00:35:10;;;;;;;14.93;9.73;;;16.30;99.90;;;;;;4129039;28;20169;-62
2023/06/08 00:37:11;;;;;;;18.42;11.00;;;16.40;99.90;;;;;;4127591;28;20108;-64
2023/06/08 00:39:12;;;;;;;14.48;10.35;;;16.40;99.90;;;;;;4129323;28;20089;-64
2023/06/08 00:41:13;;;;;;;14.10;10.63;;;16.40;99.90;;;;;;4128250;28;20483;-67
2023/06/08 00:43:14;;;;;;;15.15;10.75;;;16.40;99.90;;;;;;4129080;28;20026;-64
2023/06/08 00:45:16;;;;;;;14.70;11.23;;;16.40;99.90;;;;;;4128180;28;20097;-64
2023/06/08 00:47:17;;;;;;;17.83;11.27;;;16.40;99.90;;;;;;4129069;28;20422;-67
2023/06/08 00:49:18;;;;;;;16.85;11.50;;;16.50;99.90;;;;;;4128369;28;20034;-64
2023/06/08 00:51:21;;;;;;;19.15;12.52;;;16.40;99.90;;;;;;4128534;28;20065;-64
2023/06/08 00:53:24;;;;;;;20.88;13.07;;;16.40;99.90;;;;;;4127299;28;20030;-63
2023/06/08 00:55:29;;;;;;;19.98;12.65;;;16.40;99.90;;;;;;4128497;28;20108;-66
2023/06/08 00:57:33;;;;;;;16.00;12.13;;;16.40;99.90;;;;;;4128499;28;20790;-64
2023/06/08 00:59:34;;;;;;;18.25;11.50;;;16.40;99.90;;;;;;4128132;28;20050;-66
2023/06/08 01:01:38;;;;;;;17.83;11.63;;;16.30;99.90;;;;;;4128992;28;20042;-65
2023/06/08 01:03:39;;;;;;;17.70;11.68;;;16.30;99.90;;;;;;4128136;28;20565;-63
2023/06/08 01:05:43;;;;;;;15.23;10.77;;;16.30;99.90;;;;;;4128882;28;20093;-63
2023/06/08 01:08:04;;;;;;;15.23;11.10;;;16.30;99.90;;;;;;4127471;28;20050;-65
2023/06/08 01:10:15;;;;;;;;;;;16.20;99.90;;;;;;4129045;28;20022;-64
2023/06/08 01:12:41;;;;;;;16.10;10.70;;;16.20;99.90;;;;;;4128045;28;19961;-62
2023/06/08 01:14:58;;;;;;;13.32;10.02;;;16.20;99.90;;;;;;4128570;28;20038;-64
2023/06/08 01:17:02;;;;;;;12.50;9.57;;;16.20;99.90;;;;;;4127761;28;20035;-65
2023/06/08 01:19:11;;;;;;;11.43;8.10;;;16.20;99.90;;;;;;4127689;28;20108;-61
2023/06/08 01:21:37;;;;;;;11.63;8.35;;;16.20;99.90;;;;;;4127824;28;20467;-64
2023/06/08 01:24:12;;;;;;;13.30;8.95;;;16.20;99.90;;;;;;4128923;28;20081;-63
2023/06/08 01:26:15;;;;;;;11.90;8.63;;;16.20;99.90;;;;;;4128717;28;20038;-64
2023/06/08 01:28:17;;;;;;;13.73;8.73;;;16.20;99.90;;;;;;4127013;28;20038;-64
2023/06/08 01:30:18;;;;;;;10.68;8.32;;;16.10;99.90;;;;;;4142703;28;20045;-62
2023/06/08 01:32:19;;;;;;;13.07;8.40;;;16.20;99.90;;;;;;4127634;28;20475;-66
2023/06/08 01:34:21;;;;;;;12.00;8.70;;;16.10;99.90;;;;;;4127719;28;20038;-65
2023/06/08 01:36:34;;;;;;;12.15;7.28;;;16.10;99.90;;;;;;4128577;28;20105;-65
2023/06/08 01:38:43;;;;;;;10.23;6.55;;;16.10;99.90;;;;;;4129943;28;20018;-64
2023/06/08 01:40:49;;;;;;;11.18;6.18;;;16.10;99.90;;;;;;4131433;28;20034;-65
2023/06/08 01:42:52;;;;;;;7.45;5.22;;;16.00;99.90;;;;;;4130092;28;20038;-65
2023/06/08 01:45:03;;;;;;;6.75;4.95;;;16.00;99.90;;;;;;4131632;28;20403;-64
2023/06/08 01:47:05;;;;;;;8.57;4.78;;;16.00;99.90;;;;;;4130427;28;20569;-64
2023/06/08 01:49:09;;;;;;;6.53;4.60;;;16.00;99.90;;;;;;4131744;28;20018;-65
2023/06/08 01:51:13;;;;;;;7.47;4.95;;;15.90;99.90;;;;;;4130356;28;20022;-66
2023/06/08 01:53:16;;;;;;;5.60;4.53;;;15.90;99.90;;;;;;4131974;28;20026;-63
2023/06/08 01:55:19;;;;;;;7.13;4.75;;;15.90;99.90;;;;;;4130477;28;20026;-63
2023/06/08 01:57:20;;;;;;;8.27;4.90;;;15.90;99.90;;;;;;4131570;28;20073;-63
2023/06/08 01:59:21;;;;;;;5.65;4.85;;;15.90;99.90;;;;;;4129729;28;20062;-67
2023/06/08 02:01:22;;;;;;;6.80;4.88;;;15.90;99.90;;;;;;4131117;28;20034;-64
2023/06/08 02:03:23;;;;;;;8.98;4.97;;;15.80;99.90;;;;;;4130254;28;20092;-66
2023/06/08 02:05:24;;;;;;;6.55;5.10;;;15.80;99.90;;;;;;4131650;28;20038;-63
2023/06/08 02:07:25;;;;;;;5.65;5.05;;;15.80;99.90;;;;;;4129893;28;20030;-64
2023/06/08 02:09:27;;;;;;;5.35;4.55;;;15.80;99.90;;;;;;4131272;28;20038;-66
2023/06/08 02:11:28;;;;;;;7.57;4.78;;;15.70;99.90;;;;;;4130309;28;20014;-64
2023/06/08 02:13:30;;;;;;;7.53;5.05;;;15.70;99.90;;;;;;4130410;28;20038;-64
2023/06/08 02:15:31;;;;;;;4.85;4.32;;;15.70;99.90;;;;;;4130698;28;20030;-64
2023/06/08 02:17:33;;;;;;;8.32;5.00;;;15.60;99.90;;;;;;4130371;28;20034;-62
2023/06/08 02:19:34;;;;;;;6.50;5.18;;;15.60;99.90;;;;;;4128806;28;20050;-65
2023/06/08 02:21:36;;;;;;;5.13;4.30;;;15.60;99.90;;;;;;4129951;28;20450;-65
2023/06/08 02:23:38;;;;;;;10.45;4.95;;;15.60;99.90;;;;;;4131582;28;20487;-63
2023/06/08 02:25:39;;;;;;;5.15;4.13;;;15.60;99.90;;;;;;4129714;28;20038;-64
2023/06/08 02:27:43;;;;;;;6.30;4.60;;;15.60;99.90;;;;;;4146041;28;20026;-65
2023/06/08 02:29:44;;;;;;;8.13;4.78;;;15.50;99.90;;;;;;4130129;28;20799;-65
2023/06/08 02:31:46;;;;;;;8.13;4.72;;;15.50;99.90;;;;;;4130732;28;20542;-67
2023/06/08 02:33:47;;;;;;;7.07;4.55;;;15.40;99.90;;;;;;4129715;28;20037;-66
2023/06/08 02:35:48;;;;;;;10.95;4.60;;;15.40;99.90;;;;;;4131174;28;20479;-63
2023/06/08 02:37:50;;;;;;;9.13;5.50;;;15.40;99.90;;;;;;4129337;28;20030;-67
2023/06/08 02:39:51;;;;;;;8.15;5.07;;;15.40;99.90;;;;;;4130226;28;20116;-65
2023/06/08 02:41:52;;;;;;;7.15;5.05;;;15.40;99.90;;;;;;4129442;28;20034;-65
2023/06/08 02:43:53;;;;;;;6.68;5.22;;;15.30;99.90;;;;;;4130613;28;20030;-67
2023/06/08 02:45:54;;;;;;;10.20;5.82;;;15.30;99.90;;;;;;4129897;28;20061;-64
2023/06/08 02:47:57;;;;;;;7.95;6.43;;;15.30;99.90;;;;;;4129649;28;20476;-67
2023/06/08 02:49:58;;;;;;;7.50;5.07;;;15.30;99.90;;;;;;4129749;28;20231;-63
2023/06/08 02:51:59;;;;;;;6.75;5.65;;;15.30;99.90;;;;;;4129167;28;20034;-63
2023/06/08 02:54:01;;;;;;;6.82;5.57;;;15.20;99.90;;;;;;4130956;28;20108;-65
2023/06/08 02:56:02;;;;;;;9.13;6.18;;;15.20;99.90;;;;;;4129629;28;20038;-68
2023/06/08 02:58:03;;;;;;;7.30;6.07;;;15.20;99.90;;;;;;4130510;28;20034;-65
2023/06/08 03:00:10;;;;;;;8.75;6.90;;;15.20;99.90;;;;;;4129180;28;20030;-63
2023/06/08 03:02:11;;;;;;;7.30;6.53;;;15.20;99.90;;;;;;4130598;28;20426;-67
2023/06/08 03:04:12;;;;;;;7.00;6.30;;;15.10;99.90;;;;;;4129556;28;20426;-64
2023/06/08 03:06:17;;;;;;;14.55;11.45;;;15.10;99.90;;;;;;4130307;28;20430;-63
2023/06/08 03:08:19;;;;;;;12.95;9.32;;;15.10;99.90;;;;;;4129251;28;20050;-63
2023/06/08 03:10:20;;;;;;;9.55;7.85;;;15.20;99.90;;;;;;4130497;28;20026;-64
2023/06/08 03:12:21;;;;;;;13.52;7.45;;;15.20;99.90;;;;;;4128502;28;20089;-65
2023/06/08 03:14:28;;;;;;;10.50;6.50;;;15.20;99.90;;;;;;4130231;28;20061;-66
2023/06/08 03:16:31;;;;;;;9.90;6.60;;;15.20;99.90;;;;;;4128935;28;20038;-63
2023/06/08 03:18:34;;;;;;;8.38;6.85;;;15.20;99.90;;;;;;4129400;28;20050;-66
2023/06/08 03:20:35;;;;;;;8.57;5.97;;;15.30;99.90;;;;;;4128650;28;20058;-67
2023/06/08 03:22:36;;;;;;;6.55;5.57;;;15.40;99.90;;;;;;4129576;28;20430;-65
2023/06/08 03:24:37;;;;;;;13.23;6.47;;;15.40;99.90;;;;;;4129058;28;20454;-67
2023/06/08 03:26:39;;;;;;;8.88;5.45;;;15.50;99.90;;;;;;4129310;28;20053;-68
2023/06/08 03:28:40;;;;;;;6.55;5.05;;;15.60;99.90;;;;;;4129909;28;20108;-66
2023/06/08 03:30:41;;;;;;;6.28;5.22;;;15.60;99.90;;;;;;4128980;28;20046;-63
2023/06/08 03:32:48;;;;;;;10.30;5.30;;;15.60;99.90;;;;;;4130111;28;20027;-65
2023/06/08 03:34:49;;;;;;;5.20;4.70;;;15.70;99.90;;;;;;4128594;28;20071;-62
2023/06/08 03:36:53;;;;;;;7.38;4.88;;;15.70;99.90;;;;;;4129858;28;20097;-63
2023/06/08 03:38:55;;;;;;;7.57;5.00;;;15.80;99.90;;;;;;4144648;28;20045;-66
2023/06/08 03:40:56;;;;;;;6.32;4.90;;;15.80;99.90;;;;;;4132445;28;20046;-66
2023/06/08 03:42:57;;;;;;;5.20;4.70;;;15.80;99.90;;;;;;4128861;28;20100;-67
2023/06/08 03:44:58;;;;;;;6.70;4.50;;;15.90;99.90;;;;;;4129537;28;20035;-65
2023/06/08 03:46:59;;;;;;;7.63;5.03;;;15.90;99.90;;;;;;4128638;28;20038;-62
2023/06/08 03:49:00;;;;;;;10.13;4.63;;;15.90;99.90;;;;;;4143932;28;20540;-63
2023/06/08 03:51:02;;;;;;;7.97;4.53;;;15.90;99.90;;;;;;4128788;28;20027;-62
2023/06/08 03:53:03;;;;;;;7.57;5.20;;;15.90;99.90;;;;;;4129124;28;20508;-61
2023/06/08 03:55:06;;;;;;;5.43;4.93;;;15.90;99.90;;;;;;4129606;28;20077;-62
2023/06/08 03:57:07;;;;;;;6.90;4.65;;;15.90;99.90;;;;;;4128630;28;20026;-65
2023/06/08 03:59:10;;;;;;;6.10;4.50;;;16.00;99.90;;;;;;4128803;28;20034;-67
2023/06/08 04:01:14;;;;;;;5.50;4.68;;;16.00;99.90;;;;;;4127381;28;20466;-62
2023/06/08 04:03:15;;;;;;;5.28;4.63;;;16.00;99.90;;;;;;4129032;28;20057;-62
2023/06/08 04:05:17;;;;;;;5.63;4.72;;;16.00;99.90;;;;;;4128100;28;20038;-64
2023/06/08 04:07:20;;;;;;;10.95;5.15;;;16.00;99.90;;;;;;4129175;28;20034;-63
2023/06/08 04:09:21;;;;;;;6.95;4.85;;;16.10;99.90;;;;;;4128173;28;20104;-62
2023/06/08 04:11:22;;;;;;;4.78;4.28;;;16.20;99.90;;;;;;4128755;28;20030;-62
2023/06/08 04:13:24;;;;;;;7.75;5.10;;;16.30;99.90;;;;;;4128181;28;20042;-62
2023/06/08 04:15:25;;;;;;;14.23;5.57;;;16.40;99.90;;;;;;4129193;28;20042;-65
2023/06/08 04:17:27;;;;;;;7.00;3.83;;;16.50;99.90;;;;;;4127564;28;20624;-64
2023/06/08 04:19:28;;;;;;;9.50;4.40;;;17.00;99.90;;;;;;4126114;28;20046;-62
2023/06/08 04:21:30;;;;;;;8.02;4.22;;;17.30;99.90;;;;;;4127581;28;20109;-62
2023/06/08 04:23:35;;;;;;;6.07;4.00;;;17.70;99.90;;;;;;4128056;28;20453;-63
2023/06/08 04:25:37;;;;;;;5.40;3.65;;;17.90;99.90;;;;;;4128101;28;20042;-61
2023/06/08 04:27:38;;;;;;;6.97;3.83;;;18.30;99.90;;;;;;4128731;28;20483;-61
2023/06/08 04:29:40;;;;;;;5.38;3.40;;;18.60;99.90;;;;;;4128455;28;20026;-62
2023/06/08 04:31:41;;;;;;;5.88;3.67;;;18.80;99.90;;;;;;4128414;28;20038;-64
2023/06/08 04:33:42;;;;;;;5.30;3.42;;;18.70;99.90;;;;;;4127888;28;20430;-62
2023/06/08 04:35:43;;;;;;;6.45;3.42;;;18.90;99.90;;;;;;4126637;28;20442;-63
2023/06/08 04:37:44;;;;;;;4.78;3.55;;;19.10;99.90;;;;;;4127758;28;20022;-60
2023/06/08 04:39:48;;;;;;;5.47;3.35;;;19.10;99.90;;;;;;4127718;28;20519;-66
2023/06/08 04:41:49;;;;;;;3.38;2.95;;;19.20;99.90;;;;;;4127994;28;20054;-62
2023/06/08 04:43:52;;;;;;;5.70;3.08;;;19.20;99.90;;;;;;4127547;28;20073;-65
2023/06/08 04:46:00;;;;;;;6.95;2.67;;;19.10;99.90;;;;;;4129066;28;20053;-63
2023/06/08 04:48:02;;;;;;;10.05;3.90;;;19.00;99.90;;;;;;4127453;28;20113;-61
2023/06/08 04:50:05;;;;;;;6.22;3.40;;;18.90;99.90;;;;;;4128370;28;20080;-61
2023/06/08 04:52:08;;;;;;;8.15;3.60;;;18.80;99.90;;;;;;4126601;28;20404;-62
2023/06/08 04:54:13;;;;;;;5.30;3.90;;;18.60;99.90;;;;;;4129096;28;20031;-62
2023/06/08 04:56:18;;;;;;;5.30;3.47;;;18.70;99.90;;;;;;4128194;28;20069;-64
2023/06/08 04:58:19;;;;;;;10.35;4.15;;;18.60;99.90;;;;;;4128953;28;20034;-62
2023/06/08 05:00:21;;;;;;;4.22;3.10;;;18.50;99.90;;;;;;4127369;28;20518;-63
2023/06/08 05:02:22;;;;;;;5.97;3.72;;;18.50;99.90;;;;;;4128192;28;20042;-62
2023/06/08 05:04:25;;;;;;;5.70;3.58;;;18.60;99.90;;;;;;4127946;28;20085;-62
2023/06/08 05:06:26;;;;;;;3.95;3.03;;;18.70;99.90;;;;;;4126900;28;20483;-62
2023/06/08 05:08:27;;;;;;;3.47;3.10;;;18.70;99.90;;;;;;4126125;28;20058;-65
2023/06/08 05:10:28;;;;;;;7.07;3.50;;;18.70;99.90;;;;;;4115848;28;20093;-62
2023/06/08 05:12:29;;;;;;;3.95;3.28;;;18.60;99.90;;;;;;4122137;28;20038;-61
2023/06/08 05:14:31;;;;;;;6.30;3.90;;;18.60;99.90;;;;;;4122649;28;20055;-61
2023/06/08 05:16:32;;;;;;;7.18;3.60;;;18.60;99.90;;;;;;4123639;28;20486;-63
2023/06/08 05:18:34;;;;;;;11.10;4.35;;;18.60;99.90;;;;;;4123323;28;20629;-60
2023/06/08 05:20:35;;;;;;;5.80;3.70;;;18.60;99.90;;;;;;4124000;28;20066;-63
2023/06/08 05:22:36;;;;;;;7.82;3.17;;;18.70;99.90;;;;;;4124405;28;20042;-64
2023/06/08 05:24:37;;;;;;;15.80;9.15;;;18.80;99.90;;;;;;4133937;28;20049;-66
2023/06/08 05:26:39;;;;;;;4.93;4.22;;;18.80;99.90;;;;;;4123857;28;20050;-65
2023/06/08 05:28:40;;;;;;;11.63;3.25;;;18.90;99.90;;;;;;4125297;28;20058;-62
2023/06/08 05:30:41;;;;;;;8.27;3.97;;;18.90;99.90;;;;;;4117961;28;20043;-64
2023/06/08 05:32:42;;;;;;;4.53;3.05;;;19.10;99.90;;;;;;4125080;28;20043;-61
2023/06/08 05:34:44;;;;;;;7.82;3.55;;;19.30;99.90;;;;;;4119875;28;20625;-62
2023/06/08 05:36:45;;;;;;;4.65;3.42;;;19.40;99.90;;;;;;4122200;28;20039;-62
2023/06/08 05:38:47;;;;;;;10.88;5.63;;;19.40;99.90;;;;;;4122574;28;20042;-70
2023/06/08 05:40:48;;;;;;;12.18;4.90;;;19.60;99.90;;;;;;4123757;28;20038;-64
2023/06/08 05:42:49;;;;;;;15.40;4.55;;;19.60;99.90;;;;;;4124146;28;20038;-62
2023/06/08 05:44:50;;;;;;;10.18;3.90;;;19.60;99.90;;;;;;4122758;28;20562;-64
2023/06/08 05:46:51;;;;;;;5.10;3.88;;;19.50;99.90;;;;;;4122737;28;20085;-63
2023/06/08 05:48:52;;;;;;;6.97;3.85;;;19.50;99.90;;;;;;4120105;28;20105;-63
2023/06/08 05:50:53;;;;;;;4.78;3.70;;;19.40;99.90;;;;;;4123940;28;20089;-62
2023/06/08 05:52:54;;;;;;;5.90;3.67;;;19.10;99.90;;;;;;4123316;28;20038;-62
2023/06/08 05:54:56;;;;;;;6.13;3.47;;;19.00;99.90;;;;;;4120636;28;20051;-63
2023/06/08 05:56:57;;;;;;;8.38;3.97;;;18.80;99.90;;;;;;4123972;28;20544;-61
2023/06/08 05:58:58;;;;;;;5.90;4.40;;;18.70;99.90;;;;;;4123557;28;20426;-65
2023/06/08 06:01:03;;;;;;;7.20;4.63;;;18.60;99.90;;;;;;4119124;28;20995;-62
2023/06/08 06:03:05;;;;;;;6.28;4.35;;;18.50;99.90;;;;;;4122529;28;20069;-63
2023/06/08 06:05:09;;;;;;;7.50;3.83;;;18.50;99.90;;;;;;4122837;28;20034;-67
2023/06/08 06:07:10;;;;;;;6.13;4.22;;;18.70;99.90;;;;;;4123092;28;20042;-72
2023/06/08 06:09:11;;;;;;;14.27;6.40;;;19.10;99.90;;;;;;4121886;28;20698;-72
2023/06/08 06:11:13;;;;;;;10.50;6.50;;;19.30;99.90;;;;;;4118942;28;20051;-72
2023/06/08 06:13:14;;;;;;;12.55;6.88;;;19.40;99.90;;;;;;4126047;28;20434;-68
2023/06/08 06:15:15;;;;;;;13.80;6.97;;;19.40;99.90;;;;;;4124453;28;20458;-71
2023/06/08 06:17:16;;;;;;;9.13;5.80;;;19.50;99.90;;;;;;4122510;28;20494;-68
2023/06/08 06:19:18;;;;;;;10.13;5.78;;;19.60;99.90;;;;;;4123598;28;20089;-63
2023/06/08 06:21:19;;;;;;;14.45;6.30;;;20.00;99.90;;;;;;4121931;28;20442;-64
2023/06/08 06:23:20;;;;;;;10.48;6.72;;;19.80;99.90;;;;;;4117214;28;20454;-61
2023/06/08 06:25:23;;;;;;;16.63;6.93;;;19.50;99.90;;;;;;4121211;28;20042;-63
2023/06/08 06:27:24;;;;;;;8.15;5.78;;;19.40;99.90;;;;;;4116877;28;20042;-66
2023/06/08 06:29:25;;;;;;;8.95;5.38;;;19.20;99.90;;;;;;4125731;28;20085;-64
2023/06/08 06:31:26;;;;;;;7.53;5.55;;;19.10;99.90;;;;;;4121155;28;20073;-65
2023/06/08 06:33:27;;;;;;;8.48;5.78;;;18.90;99.90;;;;;;4124756;28;20038;-63
2023/06/08 06:35:28;;;;;;;7.88;7.00;;;18.90;99.90;;;;;;4121062;28;20018;-67
2023/06/08 06:37:34;;;;;;;10.15;5.20;;;19.10;99.90;;;;;;4123772;28;20034;-64
2023/06/08 06:39:35;;;;;;;7.70;5.75;;;19.10;99.90;;;;;;4132950;28;20050;-64
2023/06/08 06:41:36;;;;;;;7.10;5.15;;;19.20;99.90;;;;;;4122527;28;20105;-66
2023/06/08 06:43:37;;;;;;;14.00;5.80;;;19.70;99.90;;;;;;4122705;28;20050;-66
2023/06/08 06:45:38;;;;;;;6.68;5.43;;;19.60;99.90;;;;;;4119079;28;20081;-64
2023/06/08 06:47:40;;;;;;;6.97;5.30;;;19.70;99.90;;;;;;4122976;28;20054;-64
2023/06/08 06:49:41;;;;;;;5.78;5.20;;;19.70;99.90;;;;;;4120649;28;20030;-66
2023/06/08 06:51:42;;;;;;;8.20;6.00;;;19.50;99.90;;;;;;4121790;28;20101;-62
2023/06/08 06:53:43;;;;;;;9.77;5.82;;;19.40;99.90;;;;;;4123122;28;20051;-65
2023/06/08 06:55:44;;;;;;;8.73;5.55;;;19.10;99.90;;;;;;4121373;28;20042;-64
2023/06/08 06:57:48;;;;;;;9.73;6.70;;;18.90;99.90;;;;;;4119972;28;20105;-63
2023/06/08 06:59:51;;;;;;;9.10;5.93;;;18.80;99.90;;;;;;4122346;28;20055;-63
2023/06/08 07:01:52;;;;;;;9.75;6.15;;;18.80;99.90;;;;;;4117040;28;20121;-64
2023/06/08 07:03:54;;;;;;;7.25;6.30;;;18.70;99.90;;;;;;4120379;28;20085;-63
2023/06/08 07:05:58;;;;;;;11.95;6.32;;;18.60;99.90;;;;;;4117879;28;20454;-64
2023/06/08 07:08:01;;;;;;;8.95;6.07;;;18.60;99.90;;;;;;4118529;28;20068;-63
2023/06/08 07:10:02;;;;;;;5.10;4.60;;;18.70;99.90;;;;;;4118132;28;20479;-63
2023/06/08 07:12:04;;;;;;;6.55;5.13;;;18.70;99.90;;;;;;4123291;28;20055;-65
2023/06/08 07:14:05;;;;;;;7.88;6.47;;;18.80;99.90;;;;;;4121841;28;20108;-65
2023/06/08 07:16:06;;;;;;;6.43;5.70;;;18.90;99.90;;;;;;4120923;28;20136;-64
2023/06/08 07:18:07;;;;;;;8.02;5.78;;;19.00;99.90;;;;;;4124583;28;20046;-66
2023/06/08 07:20:09;;;;;;;9.27;5.45;;;19.10;99.90;;;;;;4119601;28;20085;-62
2023/06/08 07:22:10;;;;;;;7.38;4.93;;;19.30;99.90;;;;;;4123650;28;20047;-64
2023/06/08 07:24:11;;;;;;;6.60;5.03;;;19.60;99.90;;;;;;4121509;28;20093;-65
2023/06/08 07:26:13;;;;;;;6.57;5.35;;;19.70;99.90;;;;;;4121174;28;20089;-62
2023/06/08 07:28:14;;;;;;;9.52;6.28;;;19.80;99.90;;;;;;4118270;28;20038;-63
2023/06/08 07:30:16;;;;;;;6.35;5.47;;;19.80;99.90;;;;;;4124111;28;20039;-63
2023/06/08 07:32:17;;;;;;;5.53;5.00;;;20.20;99.90;;;;;;4123177;28;20038;-65
2023/06/08 07:34:18;;;;;;;6.80;5.38;;;20.40;99.90;;;;;;4120282;28;20090;-69
2023/06/08 07:36:20;;;;;;;8.23;5.65;;;20.40;99.90;;;;;;4120839;28;20106;-65
2023/06/08 07:38:21;;;;;;;7.97;5.32;;;20.50;99.90;;;;;;4122914;28;20490;-64
2023/06/08 07:40:23;;;;;;;9.65;4.95;;;20.60;99.90;;;;;;4117737;28;20070;-63
2023/06/08 07:42:24;;;;;;;4.60;4.13;;;20.80;99.90;;;;;;4114972;28;20042;-63
2023/06/08 07:44:25;;;;;;;8.73;4.70;;;20.90;99.90;;;;;;4123347;28;20077;-65
2023/06/08 07:46:26;;;;;;;5.72;4.93;;;20.70;99.90;;;;;;4120247;28;20030;-67
2023/06/08 07:48:27;;;;;;;6.00;4.60;;;20.70;99.90;;;;;;4123942;28;20089;-63
2023/06/08 07:50:28;;;;;;;8.57;4.97;;;20.80;99.90;;;;;;4113417;28;20451;-65
2023/06/08 07:52:29;;;;;;;6.63;4.95;;;20.80;99.90;;;;;;4122863;28;20096;-69
2023/06/08 07:54:30;;;;;;;7.07;4.90;;;21.10;99.90;;;;;;4126277;28;20034;-63
2023/06/08 07:56:31;;;;;;;5.60;4.43;;;21.50;99.90;;;;;;4128560;28;20549;-67
2023/06/08 07:58:33;;;;;;;4.68;4.13;;;21.80;99.90;;;;;;4128016;28;20126;-65
2023/06/08 08:00:35;;;;;;;6.05;4.40;;;22.20;99.90;;;;;;4128868;28;20050;-63
2023/06/08 08:02:36;;;;;;;5.10;3.30;;;22.50;99.90;;;;;;4127671;28;20042;-64
2023/06/08 08:04:37;;;;;;;4.00;3.67;;;22.80;99.90;;;;;;4128240;28;20450;-66
2023/06/08 08:06:38;;;;;;;4.05;3.60;;;22.90;99.90;;;;;;4142879;28;20037;-66
2023/06/08 08:08:40;;;;;;;6.30;4.10;;;22.60;99.90;;;;;;4128514;28;20050;-65
2023/06/08 08:10:41;;;;;;;10.43;4.25;;;22.70;99.90;;;;;;4117743;28;20077;-63
2023/06/08 08:12:42;;;;;;;6.72;4.75;;;22.40;99.90;;;;;;4117718;28;20042;-64
2023/06/08 08:14:44;;;;;;;5.57;4.65;;;22.40;99.90;;;;;;4128620;28;20820;-65
2023/06/08 08:16:45;;;;;;;9.20;4.45;;;22.30;99.90;;;;;;4127914;28;20873;-64
2023/06/08 08:18:46;;;;;;;3.92;3.60;;;22.30;99.90;;;;;;4128347;28;20093;-65
2023/06/08 08:20:47;;;;;;;5.53;4.15;;;22.20;99.90;;;;;;4128029;28;20466;-65
2023/06/08 08:22:48;;;;;;;8.15;4.07;;;22.10;99.90;;;;;;4128705;28;20038;-63
2023/06/08 08:24:49;;;;;;;5.68;4.30;;;22.10;99.90;;;;;;4127014;28;20099;-66
2023/06/08 08:26:54;;;;;;;4.30;3.92;;;22.00;99.90;;;;;;4128847;28;20479;-63
2023/06/08 08:28:56;;;;;;;5.43;4.25;;;21.90;99.90;;;;;;4127089;28;20388;-63
2023/06/08 08:30:59;;;;;;;4.00;3.60;;;21.90;99.90;;;;;;4128821;28;20022;-64
2023/06/08 08:33:00;;;;;;;4.95;3.97;;;21.90;99.90;;;;;;4127618;28;20068;-66
2023/06/08 08:35:02;;;;;;;8.05;3.97;;;21.90;99.90;;;;;;4142539;28;20351;-64
2023/06/08 08:37:03;;;;;;;4.60;3.95;;;21.70;99.90;;;;;;4127968;28;20084;-63
2023/06/08 08:39:04;;;;;;;4.80;4.40;;;21.80;99.90;;;;;;4127911;28;20046;-64
2023/06/08 08:41:08;;;;;;;5.70;4.25;;;21.80;99.90;;;;;;4126534;28;20046;-67
2023/06/08 08:43:18;;;;;;;4.70;4.30;;;22.00;99.90;;;;;;4128567;28;20042;-64
2023/06/08 08:45:23;;;;;;;7.30;4.28;;;21.90;99.90;;;;;;4127685;28;20054;-65
2023/06/08 08:47:28;;;;;;;4.13;3.72;;;21.90;99.90;;;;;;4127529;28;20125;-64
2023/06/08 08:49:36;;;;;;;7.78;4.25;;;21.80;99.90;;;;;;4127820;28;20074;-64
2023/06/08 08:51:38;;;;;;;7.55;4.53;;;21.80;99.90;;;;;;4128347;28;20026;-67
2023/06/08 08:53:40;;;;;;;6.28;3.92;;;21.70;99.90;;;;;;4123282;28;20168;-64
2023/06/08 08:55:42;;;;;;;4.30;3.90;;;21.70;99.90;;;;;;4111906;28;20039;-63
2023/06/08 08:57:43;;;;;;;5.53;3.80;;;21.50;99.90;;;;;;4112066;28;20093;-62
2023/06/08 08:59:45;;;;;;;5.07;4.28;;;21.70;99.90;;;;;;4115168;28;20043;-63
2023/06/08 09:01:46;;;;;;;6.78;5.13;;;21.70;99.90;;;;;;4127052;28;20387;-63
2023/06/08 09:03:48;;;;;;;6.95;5.05;;;21.70;99.90;;;;;;4127232;28;20022;-62
2023/06/08 09:05:52;;;;;;;6.20;5.10;;;21.60;99.90;;;;;;4128209;28;20034;-65
2023/06/08 09:07:55;;;;;;;6.55;4.85;;;21.70;99.90;;;;;;4126795;28;20431;-64
2023/06/08 09:10:19;;;;;;;5.78;4.88;;;21.80;99.90;;;;;;4128715;28;20043;-64
2023/06/08 09:12:20;;;;;;;5.97;4.50;;;22.00;99.90;;;;;;4127075;28;20030;-65
2023/06/08 09:14:21;;;;;;;5.28;4.75;;;22.00;99.90;;;;;;4128881;28;20027;-65
2023/06/08 09:16:23;;;;;;;5.63;4.75;;;22.10;99.90;;;;;;4127807;28;20042;-65
2023/06/08 09:18:25;;;;;;;5.82;4.30;;;22.10;99.90;;;;;;4128222;28;20553;-63
2023/06/08 09:20:31;;;;;;;3.85;3.55;;;22.20;99.90;;;;;;4127292;28;20105;-64
2023/06/08 09:22:32;;;;;;;4.43;4.03;;;22.30;99.90;;;;;;4128848;28;20042;-63
2023/06/08 09:24:33;;;;;;;5.40;4.00;;;22.60;99.90;;;;;;4126771;28;20097;-71
2023/06/08 09:26:36;;;;;;;7.07;4.38;;;22.60;99.90;;;;;;4143531;28;20421;-64
2023/06/08 09:28:37;;;;;;;8.52;3.83;;;22.70;99.90;;;;;;4127361;28;20022;-64
2023/06/08 09:30:40;;;;;;;4.47;3.65;;;22.60;99.90;;;;;;4128007;28;20046;-63
2023/06/08 09:32:41;;;;;;;4.50;3.53;;;22.50;99.90;;;;;;4127552;28;20403;-64
2023/06/08 09:34:55;;;;;;;5.90;4.30;;;22.50;99.90;;;;;;4126777;28;20824;-67
2023/06/08 09:37:09;;;;;;;4.60;3.70;;;22.70;99.90;;;;;;4111795;28;20430;-62
2023/06/08 09:39:10;;;;;;;5.43;3.80;;;22.80;99.90;;;;;;4127806;28;20110;-68
2023/06/08 09:41:22;;;;;;;6.55;3.30;;;22.80;99.90;;;;;;4127624;28;20058;-66
2023/06/08 09:43:36;;;;;;;5.93;3.80;;;22.90;99.90;;;;;;4127079;28;20034;-68
2023/06/08 09:45:47;;;;;;;4.53;3.70;;;23.00;99.90;;;;;;4126885;28;20109;-67
2023/06/08 09:47:48;;;;;;;4.15;3.22;;;23.00;99.90;;;;;;4128266;28;20031;-67
2023/06/08 09:49:51;;;;;;;4.03;2.97;;;23.00;99.90;;;;;;4127274;28;20038;-62
2023/06/08 09:51:53;;;;;;;2.83;2.60;;;22.80;99.90;;;;;;4127748;28;20069;-67
2023/06/08 09:53:57;;;;;;;5.47;3.30;;;22.70;99.90;;;;;;4128065;28;20030;-70
2023/06/08 09:55:58;;;;;;;3.30;2.50;;;22.90;99.90;;;;;;4127385;28;20030;-64
2023/06/08 09:58:02;;;;;;;4.25;3.05;;;23.00;99.90;;;;;;4127904;28;20030;-65
2023/06/08 10:00:13;;;;;;;4.85;2.97;;;22.90;99.90;;;;;;4129932;28;20026;-63
2023/06/08 10:02:17;;;;;;;3.15;2.60;;;22.90;99.90;;;;;;4131046;28;20100;-63
2023/06/08 10:04:31;;;;;;;6.18;3.63;;;22.90;99.90;;;;;;4130118;28;20038;-68
2023/06/08 10:06:33;;;;;;;2.72;2.53;;;22.90;99.90;;;;;;4130613;28;20030;-66
2023/06/08 10:08:38;;;;;;;3.05;2.72;;;23.10;99.90;;;;;;4129592;28;20081;-64
2023/06/08 10:10:41;;;;;;;3.78;3.00;;;23.10;99.90;;;;;;4130467;28;20030;-65
2023/06/08 10:12:43;;;;;;;4.50;2.45;;;23.20;99.90;;;;;;4129945;28;20438;-64
2023/06/08 10:14:45;;;;;;;5.60;2.90;;;23.20;99.90;;;;;;4128972;28;20046;-64
2023/06/08 10:16:47;;;;;;;3.78;3.10;;;23.20;99.90;;;;;;4132729;28;20038;-68
2023/06/08 10:18:48;;;;;;;4.18;2.67;;;23.20;99.90;;;;;;4130540;28;20042;-63
2023/06/08 10:20:50;;;;;;;4.47;2.28;;;23.40;99.90;;;;;;4129719;28;20498;-63
2023/06/08 10:22:52;;;;;;;5.75;2.28;;;23.60;99.90;;;;;;4131080;28;20089;-69
2023/06/08 10:24:54;;;;;;;6.40;2.63;;;23.60;99.90;;;;;;4129801;28;20038;-65
2023/06/08 10:27:09;;;;;;;6.40;2.60;;;23.80;99.90;;;;;;4130782;28;20537;-67
2023/06/08 10:29:11;;;;;;;4.25;2.92;;;23.90;99.90;;;;;;4129177;28;20034;-64
2023/06/08 10:31:32;;;;;;;4.90;2.63;;;24.00;99.90;;;;;;4130217;28;20034;-64
2023/06/08 10:33:40;;;;;;;3.15;2.90;;;24.00;99.90;;;;;;4129160;28;20072;-64
2023/06/08 10:35:43;;;;;;;6.22;2.80;;;24.10;99.90;;;;;;4130203;28;20097;-63